Terminal Aerodrome Forecast
Issued by NWS

Home | Current Version | Previous Version | Text Only | Print | Product List | Glossary On
Versions: 1 2 3 4 5 6 7 8 9 10 11 12 13 14 15 16 17
000
FTAK31 PAJN 192300
TAFAKT
TAF
PAKT 192337Z 2000/2024 15020G35KT 4SM RA BR BKN020 OVC030
      WS020/13040KT
     FM200400 14012G22KT 4SM -RA BR BKN020 OVC040 WS020/13030KT
     FM200900 15020G35KT 5SM RA BR BKN030 OVC040 WS020/13040KT
     FM202000 14013G21KT P6SM -RA BKN030 OVC040
      AMD LTD TO CLD VIS AND WIND 2006/2015=

USA.gov is the U.S. government's official web portal to all federal, state and local government web resources and services.